Frankton, Indiana
Current Conditions -  °F | °C
As of 8:15 AM on Saturday 01 Nov 2014 (Local Time) from KMZZ Reporting Station
Broken Clouds Broken Clouds  
Wind Chill: -6°   Ceiling: 3000
Heat Index:   Visibility: 10mi
Dew Point: -5°   Wind: 13mph
Humidity: 71%   Direction: 360°N
Pressure: 30.31"   Gusts: NA
Location:  40.22°N, 85.78°W
Report Text: KMZZ 011215Z AUTO 36011KT 10SM BKN030 00/M05 A3031 RMK AO2 T10041050
Loading
Personal Weather Stations






























Interactive Weather Map
Tropical Storm Tracking
New forecast layout! Learn more

10-Day Weather Forecast

Advertisements
Track Severe Weather on mobile